Balmat, New York
Current Conditions -  °F | °C
As of 7:58 PM on Friday 19 Dec 2014 (Local Time) from KGTB Reporting Station
Clear Clear  
Wind Chill: -8°   Ceiling: Unl
Heat Index: -8°   Visibility: 10mi
Dew Point: -11°   Wind: 3mph
Humidity: 83%   Direction: 20°NNE
Pressure: 30.22"   Gusts: NA
Location:  44.2483°N, 75.3953°W
Report Text: KGTB 200058Z AUTO 02003KT 10SM CLR M08/M11 A3022 RMK AO2 SLP247 T10841108
Loading
Personal Weather Stations






























Interactive Weather Map New forecast layout! Learn more

10-Day Weather Forecast

Advertisements
Track Severe Weather on mobile